Time;durP1;ratioP1;P1;durP2;ratioP2;P2;SDS_P1;SDS_P2;PMS_P1;PMS_P2;Temp;Humidity;BMP_temperature;BMP_pressure;BME280_temperature;BME280_humidity;BME280_pressure;Samples;Min_cycle;Max_cycle;Signal;HPM_P1;HPM_P2
2021/12/10 00:00:55;;;;;;;1999.90;999.90;;;;;;;2.65;95.05;163103.97;5045397;28;20104;-66
2021/12/10 00:03:36;;;;;;;1999.90;999.90;;;;;;;2.78;94.75;163139.59;5046464;28;20124;-66
2021/12/10 00:06:07;;;;;;;1999.90;999.90;;;;;;;2.80;94.43;163143.69;5048145;28;20088;-66
2021/12/10 00:08:35;;;;;;;1999.90;999.90;;;;;;;2.85;94.42;163156.03;5039533;28;20504;-67
2021/12/10 00:11:08;;;;;;;1999.90;999.90;;;;;;;2.80;94.31;163145.06;5039017;28;20046;-66
2021/12/10 00:13:36;;;;;;;1999.90;999.90;;;;;;;2.66;94.42;163106.69;5040902;28;20045;-66
2021/12/10 00:16:04;;;;;;;1999.90;999.90;;;;;;;2.80;93.92;163145.06;5045549;28;20072;-66
2021/12/10 00:18:35;;;;;;;1999.90;999.90;;;;;;;2.65;94.00;163103.97;5044088;28;20045;-66
2021/12/10 00:21:04;;;;;;;1999.90;999.90;;;;;;;2.53;95.00;163071.06;5041978;28;20056;-66
2021/12/10 00:23:32;;;;;;;1999.90;999.90;;;;;;;2.58;94.73;163084.78;5044859;28;20076;-66
2021/12/10 00:26:01;;;;;;;1999.90;999.90;;;;;;;2.55;94.69;163076.56;5042261;28;20049;-67
2021/12/10 00:28:35;;;;;;;1999.90;999.90;;;;;;;2.66;94.46;163106.69;5045375;28;20077;-66
2021/12/10 00:31:30;;;;;;;1999.90;999.90;;;;;;;2.67;94.15;163109.44;5045785;28;20258;-66
2021/12/10 00:34:06;;;;;;;1999.90;999.90;;;;;;;2.68;94.35;163112.19;5038443;28;20132;-66
2021/12/10 00:36:36;;;;;;;1999.90;999.90;;;;;;;2.61;94.44;163094.34;5038548;28;20084;-66
2021/12/10 00:39:10;;;;;;;1999.90;999.90;;;;;;;2.51;94.74;163065.59;5042897;28;20057;-67
2021/12/10 00:41:38;;;;;;;1999.90;999.90;;;;;;;2.32;94.94;163014.91;5043885;28;20088;-67
2021/12/10 00:44:05;;;;;;;1999.90;999.90;;;;;;;1.98;96.28;162925.94;5043193;28;20086;-67
2021/12/10 00:46:32;;;;;;;1999.90;999.90;;;;;;;1.96;96.82;162920.44;5037962;28;20516;-67
2021/12/10 00:48:59;;;;;;;1999.90;999.90;;;;;;;1.94;96.97;162916.31;5038952;28;20404;-67
2021/12/10 00:51:25;;;;;;;1999.90;999.90;;;;;;;2.01;96.90;162934.16;5043572;28;20072;-67
2021/12/10 00:53:53;;;;;;;1999.90;999.90;;;;;;;2.17;96.35;162976.56;5034413;28;20052;-67
2021/12/10 00:56:20;;;;;;;1999.90;999.90;;;;;;;2.20;96.33;162984.78;5043542;28;20087;-67
2021/12/10 00:58:46;;;;;;;1999.90;999.90;;;;;;;2.24;95.95;162995.75;5042122;28;20046;-67
2021/12/10 01:01:21;;;;;;;1999.90;999.90;;;;;;;2.38;95.75;163031.34;5044090;28;20095;-67
2021/12/10 01:03:58;;;;;;;1999.90;999.90;;;;;;;2.45;95.32;163050.53;5047018;28;20053;-67
2021/12/10 01:06:27;;;;;;;1999.90;999.90;;;;;;;2.47;95.16;163057.38;5043012;28;20049;-67
2021/12/10 01:08:59;;;;;;;1999.90;999.90;;;;;;;2.43;95.16;163045.06;5035086;28;20045;-67
2021/12/10 01:11:32;;;;;;;1999.90;999.90;;;;;;;2.53;94.80;163071.06;5035487;28;20098;-67
2021/12/10 01:14:13;;;;;;;1999.90;999.90;;;;;;;2.62;94.86;163097.09;5044466;28;20100;-66
2021/12/10 01:27:34;;;;;;;1999.90;999.90;;;;;;;2.27;95.62;163003.97;5046462;28;20044;-66
2021/12/10 01:30:16;;;;;;;1999.90;999.90;;;;;;;2.00;96.60;162931.41;5036180;28;20087;-66
2021/12/10 01:32:50;;;;;;;1999.90;999.90;;;;;;;1.96;96.66;162920.44;5036359;28;20076;-66
2021/12/10 01:35:21;;;;;;;1999.90;999.90;;;;;;;1.72;98.15;162856.09;5032820;28;20450;-66
2021/12/10 01:37:50;;;;;;;1999.90;999.90;;;;;;;1.89;97.28;162901.25;5041873;28;20481;-66
2021/12/10 01:40:20;;;;;;;1999.90;999.90;;;;;;;1.73;98.45;162860.22;5035503;28;20049;-66
2021/12/10 01:42:51;;;;;;;1999.90;999.90;;;;;;;1.66;98.28;162839.69;5035458;28;20057;-66
2021/12/10 01:45:26;;;;;;;1999.90;999.90;;;;;;;1.64;98.24;162834.19;5044196;28;20052;-66
2021/12/10 01:48:08;;;;;;;1999.90;999.90;;;;;;;1.76;98.03;162867.06;5038848;28;20084;-66
2021/12/10 01:50:36;;;;;;;1999.90;999.90;;;;;;;1.56;97.75;162813.66;5039730;28;20114;-66
2021/12/10 01:53:07;;;;;;;1999.90;999.90;;;;;;;1.43;98.91;162779.47;5039804;28;20087;-66
2021/12/10 01:55:38;;;;;;;1999.90;999.90;;;;;;;1.64;98.71;162835.59;5042920;28;20083;-66
2021/12/10 01:58:08;;;;;;;1999.90;999.90;;;;;;;1.66;98.43;162839.69;5044701;28;20268;-67
2021/12/10 02:00:37;;;;;;;1999.90;999.90;;;;;;;1.51;98.60;162800.00;5039690;28;20334;-66
2021/12/10 02:03:04;;;;;;;1999.90;999.90;;;;;;;1.57;98.78;162817.75;5034677;28;20143;-66
2021/12/10 02:05:32;;;;;;;1999.90;999.90;;;;;;;1.31;100.00;162748.00;5041031;28;20080;-66
2021/12/10 02:07:58;;;;;;;1999.90;999.90;;;;;;;1.22;100.00;162723.31;5041314;28;20123;-66
2021/12/10 02:10:28;;;;;;;1999.90;999.90;;;;;;;1.25;100.00;162731.59;5043202;28;20241;-66
2021/12/10 02:12:57;;;;;;;1999.90;999.90;;;;;;;1.36;100.00;162761.66;5044236;28;20088;-67
2021/12/10 02:15:27;;;;;;;1999.90;999.90;;;;;;;1.53;100.00;162805.44;5033646;28;20342;-66
2021/12/10 02:17:57;;;;;;;1999.90;999.90;;;;;;;1.52;100.00;162802.69;5036546;28;20266;-66
2021/12/10 02:20:25;;;;;;;1999.90;999.90;;;;;;;1.32;100.00;162749.34;5033682;28;20062;-67
2021/12/10 02:22:52;;;;;;;1999.90;999.90;;;;;;;1.62;100.00;162830.06;5040710;28;20083;-66
2021/12/10 02:25:23;;;;;;;1999.90;999.90;;;;;;;1.58;99.70;162819.16;5043625;28;20398;-66
2021/12/10 02:27:51;;;;;;;1999.90;999.90;;;;;;;1.53;99.99;162805.44;5044073;28;20110;-66
2021/12/10 02:30:20;;;;;;;1999.90;999.90;;;;;;;1.14;100.00;162701.47;5041514;28;20057;-67
2021/12/10 02:32:47;;;;;;;1999.90;999.90;;;;;;;1.82;99.90;162882.13;5042861;28;20076;-66
2021/12/10 02:35:15;;;;;;;1999.90;999.90;;;;;;;1.51;100.00;162800.00;5039719;28;20103;-67
2021/12/10 02:37:45;;;;;;;1999.90;999.90;;;;;;;1.83;99.64;162884.84;5040814;28;20076;-67
2021/12/10 02:40:15;;;;;;;1999.90;999.90;;;;;;;1.74;99.43;162862.97;5042242;28;20045;-67
2021/12/10 02:42:42;;;;;;;1999.90;999.90;;;;;;;1.72;99.44;162857.47;5030695;28;20080;-66
2021/12/10 02:45:11;;;;;;;1999.90;999.90;;;;;;;1.62;99.94;162828.72;5042823;28;20048;-67
2021/12/10 02:47:39;;;;;;;1999.90;999.90;;;;;;;1.43;100.00;162778.06;5040528;28;20057;-66
2021/12/10 02:50:08;;;;;;;1999.90;999.90;;;;;;;1.58;100.00;162820.50;5034296;28;20408;-67
2021/12/10 02:52:35;;;;;;;1999.90;999.90;;;;;;;1.82;100.00;162882.13;5043074;28;20107;-66
2021/12/10 02:55:02;;;;;;;1999.90;999.90;;;;;;;1.86;99.64;162894.47;5042519;28;20106;-66
2021/12/10 02:57:29;;;;;;;1999.90;999.90;;;;;;;1.52;100.00;162804.09;5042853;28;20085;-66
2021/12/10 02:59:56;;;;;;;1999.90;999.90;;;;;;;1.83;100.00;162884.84;5049857;28;20049;-67
2021/12/10 03:02:25;;;;;;;1999.90;999.90;;;;;;;1.81;99.76;162880.72;5041965;28;20057;-67
2021/12/10 03:04:52;;;;;;;1999.90;999.90;;;;;;;1.23;100.00;162727.44;5031045;28;20427;-67
2021/12/10 03:07:20;;;;;;;1999.90;999.90;;;;;;;1.38;100.00;162765.75;5048766;28;20098;-67
2021/12/10 03:09:49;;;;;;;1999.90;999.90;;;;;;;1.54;100.00;162808.19;5040766;28;20046;-66
2021/12/10 03:12:18;;;;;;;1999.90;999.90;;;;;;;1.59;100.00;162821.88;5036306;28;20342;-66
2021/12/10 03:14:49;;;;;;;1999.90;999.90;;;;;;;1.58;100.00;162819.16;5036389;28;20148;-66
2021/12/10 03:17:29;;;;;;;1999.90;999.90;;;;;;;1.39;100.00;162769.88;5038998;28;20465;-66
2021/12/10 03:19:56;;;;;;;1999.90;999.90;;;;;;;1.37;100.00;162763.00;5042032;28;20103;-66
2021/12/10 03:22:24;;;;;;;1999.90;999.90;;;;;;;0.91;100.00;162641.28;5049183;28;20458;-66
2021/12/10 03:24:52;;;;;;;1999.90;999.90;;;;;;;0.99;100.00;162663.13;5038416;28;20414;-65
2021/12/10 03:27:22;;;;;;;1999.90;999.90;;;;;;;0.66;100.00;162574.25;5044843;28;20079;-66
2021/12/10 03:29:50;;;;;;;1999.90;999.90;;;;;;;1.15;100.00;162704.22;5048135;28;20045;-66
2021/12/10 03:32:22;;;;;;;1999.90;999.90;;;;;;;1.23;100.00;162726.06;5043239;28;20475;-66
2021/12/10 03:34:50;;;;;;;1999.90;999.90;;;;;;;0.98;100.00;162659.03;5050013;28;20045;-66
2021/12/10 03:37:19;;;;;;;1999.90;999.90;;;;;;;0.90;100.00;162638.53;5046236;28;20110;-66
2021/12/10 03:39:49;;;;;;;1999.90;999.90;;;;;;;0.81;100.00;162613.91;5045964;28;20084;-66
2021/12/10 03:42:19;;;;;;;1999.90;999.90;;;;;;;0.72;100.00;162589.28;5043874;28;20438;-67
2021/12/10 03:44:46;;;;;;;1999.90;999.90;;;;;;;0.48;100.00;162527.72;5045796;28;20067;-66
2021/12/10 03:47:12;;;;;;;1999.90;999.90;;;;;;;0.82;100.00;162618.00;5036692;28;20081;-66
2021/12/10 03:49:40;;;;;;;1999.90;999.90;;;;;;;0.78;100.00;162607.06;5042680;28;20042;-66
2021/12/10 03:52:08;;;;;;;1999.90;999.90;;;;;;;0.59;100.00;162556.44;5039695;28;20108;-66
2021/12/10 03:54:36;;;;;;;1999.90;999.90;;;;;;;0.58;100.00;162552.34;5040647;28;20073;-66
2021/12/10 03:57:05;;;;;;;1999.90;999.90;;;;;;;0.60;100.00;162557.84;5039644;28;20095;-66
2021/12/10 03:59:34;;;;;;;1999.90;999.90;;;;;;;0.84;100.00;162622.09;5044379;28;20046;-66
2021/12/10 04:02:00;;;;;;;1999.90;999.90;;;;;;;0.99;100.00;162663.13;5042350;28;20053;-66
2021/12/10 04:04:34;;;;;;;1999.90;999.90;;;;;;;1.18;100.00;162712.41;5038969;28;20053;-66
2021/12/10 04:07:04;;;;;;;1999.90;999.90;;;;;;;1.38;100.00;162765.75;5043870;28;20136;-66
2021/12/10 04:09:31;;;;;;;1999.90;999.90;;;;;;;1.06;100.00;162680.94;5048530;28;20045;-66
2021/12/10 04:11:58;;;;;;;1999.90;999.90;;;;;;;0.96;100.00;162654.94;5040963;28;20193;-66
2021/12/10 04:14:25;;;;;;;1999.90;999.90;;;;;;;1.10;100.00;162690.50;5043559;28;20057;-66
2021/12/10 04:16:57;;;;;;;1999.90;999.90;;;;;;;1.08;100.00;162685.06;5032664;28;20080;-67
2021/12/10 04:19:28;;;;;;;1999.90;999.90;;;;;;;1.11;100.00;162694.59;5036276;28;20114;-67
2021/12/10 04:21:57;;;;;;;1999.90;999.90;;;;;;;0.75;100.00;162597.50;5040756;28;20159;-67
2021/12/10 04:24:25;;;;;;;1999.90;999.90;;;;;;;0.87;100.00;162630.31;5048467;28;20052;-67
2021/12/10 04:26:53;;;;;;;1999.90;999.90;;;;;;;0.77;100.00;162602.94;5039541;28;20057;-67
2021/12/10 04:29:20;;;;;;;1999.90;999.90;;;;;;;0.88;100.00;162633.06;5037812;28;20084;-67
2021/12/10 04:31:49;;;;;;;1999.90;999.90;;;;;;;0.87;100.00;162630.31;5040796;28;20131;-67
2021/12/10 04:34:16;;;;;;;1999.90;999.90;;;;;;;0.69;100.00;162583.78;5045696;28;20099;-67
2021/12/10 04:36:43;;;;;;;1999.90;999.90;;;;;;;0.61;100.00;162561.94;5042876;28;20377;-67
2021/12/10 04:39:10;;;;;;;1999.90;999.90;;;;;;;0.52;100.00;162537.28;5045886;28;20361;-67
2021/12/10 04:41:37;;;;;;;1999.90;999.90;;;;;;;0.47;100.00;162523.63;5042845;28;20041;-67
2021/12/10 04:44:05;;;;;;;1999.90;999.90;;;;;;;0.48;100.00;162527.72;5040004;28;20448;-67
2021/12/10 04:46:32;;;;;;;1999.90;999.90;;;;;;;0.30;100.00;162479.88;5040092;28;20053;-67
2021/12/10 04:49:03;;;;;;;1999.90;999.90;;;;;;;0.63;100.00;162567.38;5044969;28;20049;-67
2021/12/10 04:51:34;;;;;;;1999.90;999.90;;;;;;;0.57;100.00;162550.97;5042990;28;20072;-67
2021/12/10 04:54:02;;;;;;;1999.90;999.90;;;;;;;0.37;100.00;162497.63;5044924;28;20046;-67
2021/12/10 04:56:30;;;;;;;1999.90;999.90;;;;;;;0.27;100.00;162471.66;5041486;28;20476;-67
2021/12/10 04:58:58;;;;;;;1999.90;999.90;;;;;;;0.35;100.00;162493.53;5040145;28;20088;-67
2021/12/10 05:01:26;;;;;;;1999.90;999.90;;;;;;;0.55;100.00;162544.13;5042860;28;20068;-67
2021/12/10 05:03:53;;;;;;;1999.90;999.90;;;;;;;0.53;100.00;162540.03;5041413;28;20055;-67
2021/12/10 05:06:20;;;;;;;1999.90;999.90;;;;;;;0.72;100.00;162590.66;5039826;28;20487;-67
2021/12/10 05:08:47;;;;;;;1999.90;999.90;;;;;;;1.11;100.00;162693.25;5043432;28;20049;-67
2021/12/10 05:11:14;;;;;;;1999.90;999.90;;;;;;;0.70;100.00;162585.19;5040788;28;20049;-67
2021/12/10 05:13:43;;;;;;;1999.90;999.90;;;;;;;0.78;100.00;162607.06;5041511;28;20092;-67
2021/12/10 05:16:11;;;;;;;1999.90;999.90;;;;;;;1.22;100.00;162723.31;5045095;28;20049;-67
2021/12/10 05:18:43;;;;;;;1999.90;999.90;;;;;;;1.29;100.00;162741.13;5041140;28;20072;-67
2021/12/10 05:21:13;;;;;;;1999.90;999.90;;;;;;;1.21;100.00;162721.97;5037894;28;20095;-67
2021/12/10 05:23:39;;;;;;;1999.90;999.90;;;;;;;1.21;100.00;162720.63;5040564;28;20049;-68
2021/12/10 05:26:07;;;;;;;1999.90;999.90;;;;;;;0.73;100.00;162593.41;5045537;28;20153;-67
2021/12/10 05:28:35;;;;;;;1999.90;999.90;;;;;;;0.42;100.00;162509.97;5043180;28;20442;-67
2021/12/10 05:31:03;;;;;;;1999.90;999.90;;;;;;;0.75;100.00;162597.50;5042110;28;20444;-67
2021/12/10 05:33:29;;;;;;;1999.90;999.90;;;;;;;0.97;100.00;162656.28;5045600;28;20063;-67
2021/12/10 05:35:58;;;;;;;1999.90;999.90;;;;;;;0.74;100.00;162596.09;5042667;28;20433;-67
2021/12/10 05:38:25;;;;;;;1999.90;999.90;;;;;;;0.93;100.00;162646.72;5037360;28;20084;-67
2021/12/10 05:40:53;;;;;;;1999.90;999.90;;;;;;;0.96;100.00;162653.56;5043930;28;20049;-67
2021/12/10 05:43:21;;;;;;;1999.90;999.90;;;;;;;1.26;100.00;162734.28;5037913;28;20053;-67
2021/12/10 05:45:48;;;;;;;1999.90;999.90;;;;;;;1.21;100.00;162720.63;5041568;28;20085;-68
2021/12/10 05:48:17;;;;;;;1999.90;999.90;;;;;;;1.15;100.00;162704.22;5045328;28;20080;-68
2021/12/10 05:50:44;;;;;;;1999.90;999.90;;;;;;;1.09;100.00;162687.75;5041413;28;20124;-68
2021/12/10 05:53:11;;;;;;;1999.90;999.90;;;;;;;1.28;100.00;162739.78;5037543;28;20056;-68
2021/12/10 05:55:40;;;;;;;1999.90;999.90;;;;;;;1.30;100.00;162743.91;5043611;28;20290;-68
2021/12/10 05:58:06;;;;;;;1999.90;999.90;;;;;;;0.95;100.00;162652.19;5041358;28;20428;-68
2021/12/10 06:00:45;;;;;;;1999.90;999.90;;;;;;;1.11;100.00;162694.59;5045893;28;20067;-68
2021/12/10 06:03:12;;;;;;;1999.90;999.90;;;;;;;1.25;100.00;162730.19;5033406;28;20410;-67
2021/12/10 06:05:41;;;;;;;1999.90;999.90;;;;;;;1.22;100.00;162723.31;5043864;28;20515;-67
2021/12/10 06:08:09;;;;;;;1999.90;999.90;;;;;;;0.95;100.00;162650.81;5040676;28;20069;-67
2021/12/10 06:10:37;;;;;;;1999.90;999.90;;;;;;;0.67;100.00;162576.94;5037769;28;20094;-67
2021/12/10 06:13:04;;;;;;;1999.90;999.90;;;;;;;0.57;100.00;162549.63;5034510;28;20393;-67
2021/12/10 06:15:31;;;;;;;1999.90;999.90;;;;;;;0.76;100.00;162600.19;5041626;28;20077;-67
2021/12/10 06:17:58;;;;;;;1999.90;999.90;;;;;;;0.74;100.00;162594.75;5044586;28;20511;-68
2021/12/10 06:20:28;;;;;;;1999.90;999.90;;;;;;;0.67;100.00;162576.94;5037601;28;20049;-68
2021/12/10 06:22:57;;;;;;;1999.90;999.90;;;;;;;0.37;100.00;162496.28;5035798;28;20454;-66
2021/12/10 06:25:23;;;;;;;1999.90;999.90;;;;;;;0.29;100.00;162477.13;5043711;28;20347;-66
2021/12/10 06:27:50;;;;;;;1999.90;999.90;;;;;;;0.50;100.00;162531.81;5039917;28;20088;-67
2021/12/10 06:30:20;;;;;;;1999.90;999.90;;;;;;;0.45;100.00;162518.16;5045504;28;20045;-67
2021/12/10 06:32:52;;;;;;;1999.90;999.90;;;;;;;0.33;100.00;162486.72;5040060;28;20509;-67
2021/12/10 06:35:18;;;;;;;1999.90;999.90;;;;;;;0.87;100.00;162631.66;5042013;28;20433;-66
2021/12/10 06:37:45;;;;;;;1999.90;999.90;;;;;;;0.99;100.00;162663.13;5042483;28;20107;-66
2021/12/10 06:40:16;;;;;;;1999.90;999.90;;;;;;;1.05;100.00;162678.19;5042906;28;20041;-66
2021/12/10 06:42:43;;;;;;;1999.90;999.90;;;;;;;1.08;100.00;162685.06;5051070;28;20214;-66
2021/12/10 06:45:15;;;;;;;1999.90;999.90;;;;;;;0.96;100.00;162654.94;5039480;28;20077;-67
2021/12/10 06:47:44;;;;;;;1999.90;999.90;;;;;;;1.20;100.00;162719.22;5044946;28;20535;-67
2021/12/10 06:50:11;;;;;;;1999.90;999.90;;;;;;;1.07;100.00;162682.28;5042322;28;20118;-67
2021/12/10 06:52:37;;;;;;;1999.90;999.90;;;;;;;1.07;100.00;162683.66;5041984;28;20045;-67
2021/12/10 06:55:05;;;;;;;1999.90;999.90;;;;;;;0.92;100.00;162642.63;5046502;28;20091;-67
2021/12/10 06:57:32;;;;;;;1999.90;999.90;;;;;;;0.78;100.00;162607.06;5047716;28;20103;-68
2021/12/10 06:59:59;;;;;;;1999.90;999.90;;;;;;;0.86;100.00;162628.97;5022422;28;20048;-67
2021/12/10 07:02:25;;;;;;;1999.90;999.90;;;;;;;0.73;100.00;162592.00;5043314;28;20060;-67
2021/12/10 07:04:52;;;;;;;1999.90;999.90;;;;;;;0.52;100.00;162537.28;5049413;28;20049;-67
2021/12/10 07:07:18;;;;;;;1999.90;999.90;;;;;;;0.84;100.00;162622.09;5036525;28;20088;-67
2021/12/10 07:09:45;;;;;;;1999.90;999.90;;;;;;;0.82;100.00;162616.59;5045055;28;20350;-67
2021/12/10 07:12:12;;;;;;;1999.90;999.90;;;;;;;0.49;100.00;162529.06;5040512;28;20362;-67
2021/12/10 07:14:39;;;;;;;1999.90;999.90;;;;;;;0.39;100.00;162501.72;5041073;28;20057;-67
2021/12/10 07:17:07;;;;;;;1999.90;999.90;;;;;;;0.65;100.00;162572.84;5045811;28;20154;-67
2021/12/10 07:19:34;;;;;;;1999.90;999.90;;;;;;;0.73;100.00;162592.00;5048832;28;20073;-67
2021/12/10 07:22:00;;;;;;;1999.90;999.90;;;;;;;0.95;100.00;162652.19;5043902;28;20154;-67
2021/12/10 07:24:27;;;;;;;1999.90;999.90;;;;;;;1.12;100.00;162696.00;5044236;28;20045;-67
2021/12/10 07:26:55;;;;;;;1999.90;999.90;;;;;;;0.94;100.00;162649.47;5047675;28;20048;-66
2021/12/10 07:29:22;;;;;;;1999.90;999.90;;;;;;;0.38;100.00;162500.38;5034918;28;20104;-66
2021/12/10 07:31:48;;;;;;;1999.90;999.90;;;;;;;0.51;100.00;162534.59;5040308;28;20148;-66
2021/12/10 07:34:15;;;;;;;1999.90;999.90;;;;;;;0.79;100.00;162608.41;5038265;28;20049;-67
2021/12/10 07:36:42;;;;;;;1999.90;999.90;;;;;;;0.34;100.00;162489.41;5036084;28;20454;-66
2021/12/10 07:39:09;;;;;;;1999.90;999.90;;;;;;;0.76;100.00;162601.59;5044020;28;20127;-66
2021/12/10 07:41:37;;;;;;;1999.90;999.90;;;;;;;0.72;100.00;162589.28;5039015;28;20381;-67
2021/12/10 07:44:04;;;;;;;1999.90;999.90;;;;;;;0.83;100.00;162620.75;5039689;28;20072;-66
2021/12/10 07:46:32;;;;;;;1999.90;999.90;;;;;;;1.18;100.00;162712.41;5036856;28;20106;-66
2021/12/10 07:48:59;;;;;;;1999.90;999.90;;;;;;;1.26;100.00;162734.28;5041412;28;20053;-67
2021/12/10 07:51:28;;;;;;;1999.90;999.90;;;;;;;1.74;100.00;162861.56;5042048;28;20194;-66
2021/12/10 07:53:57;;;;;;;1999.90;999.90;;;;;;;1.64;100.00;162834.19;5040338;28;20323;-67
2021/12/10 07:56:29;;;;;;;1999.90;999.90;;;;;;;1.48;100.00;162791.78;5043405;28;20425;-67
2021/12/10 07:58:56;;;;;;;1999.90;999.90;;;;;;;1.77;100.00;162869.78;5042590;28;20103;-67
2021/12/10 08:01:27;;;;;;;1999.90;999.90;;;;;;;2.00;100.00;162931.41;5039777;28;20045;-67
2021/12/10 08:03:56;;;;;;;1999.90;999.90;;;;;;;1.64;100.00;162835.59;5038753;28;20048;-68
2021/12/10 08:06:26;;;;;;;1999.90;999.90;;;;;;;1.97;100.00;162923.19;5035138;28;20430;-67
2021/12/10 08:08:52;;;;;;;1999.90;999.90;;;;;;;2.25;100.00;162998.50;5043512;28;20372;-68
2021/12/10 08:11:20;;;;;;;1999.90;999.90;;;;;;;2.53;99.04;163072.47;5047683;28;20080;-67
2021/12/10 08:13:48;;;;;;;1999.90;999.90;;;;;;;2.54;98.32;163075.16;5043637;28;20045;-67
2021/12/10 08:16:16;;;;;;;1999.90;999.90;;;;;;;2.55;98.22;163076.56;5038539;28;20073;-68
2021/12/10 08:18:43;;;;;;;1999.90;999.90;;;;;;;2.63;97.61;163099.88;5046622;28;20331;-67
2021/12/10 08:21:10;;;;;;;1999.90;999.90;;;;;;;2.19;98.83;162982.06;5041167;28;20102;-67
2021/12/10 08:23:38;;;;;;;1999.90;999.90;;;;;;;2.39;98.69;163035.47;5041838;28;20077;-67
2021/12/10 08:26:06;;;;;;;1999.90;999.90;;;;;;;2.61;98.10;163093.00;5054626;28;20131;-67
2021/12/10 08:28:33;;;;;;;1999.90;999.90;;;;;;;2.47;98.49;163056.00;5045883;28;20449;-67
2021/12/10 08:31:01;;;;;;;1999.90;999.90;;;;;;;2.42;98.66;163043.66;5034971;28;20123;-67
2021/12/10 08:33:28;;;;;;;1999.90;999.90;;;;;;;2.52;98.11;163068.38;5043016;28;20041;-67
2021/12/10 08:35:59;;;;;;;1999.90;999.90;;;;;;;2.13;99.93;162964.25;5035131;28;20340;-67
2021/12/10 08:38:26;;;;;;;1999.90;999.90;;;;;;;2.05;100.00;162945.06;5037467;28;20342;-67
2021/12/10 08:40:57;;;;;;;1999.90;999.90;;;;;;;1.98;100.00;162925.94;5041848;28;20076;-67
2021/12/10 08:43:25;;;;;;;1999.90;999.90;;;;;;;2.41;100.00;163039.56;5043840;28;20037;-67
2021/12/10 08:45:53;;;;;;;1999.90;999.90;;;;;;;2.62;98.67;163095.72;5046274;28;20544;-67
2021/12/10 08:48:21;;;;;;;1999.90;999.90;;;;;;;2.89;97.40;163168.34;5040867;28;20057;-67
2021/12/10 08:50:48;;;;;;;1999.90;999.90;;;;;;;2.91;97.34;163172.47;5041458;28;20090;-67
2021/12/10 08:53:14;;;;;;;1999.90;999.90;;;;;;;2.42;97.96;163042.31;5043758;28;20103;-67
2021/12/10 08:55:43;;;;;;;1999.90;999.90;;;;;;;2.24;99.92;162995.75;5042834;28;20053;-67
2021/12/10 08:58:11;;;;;;;1999.90;999.90;;;;;;;2.32;100.00;163016.28;5041567;28;20041;-66
2021/12/10 09:00:41;;;;;;;1999.90;999.90;;;;;;;2.38;99.71;163031.34;5047664;28;20097;-68
2021/12/10 09:03:12;;;;;;;1999.90;999.90;;;;;;;2.24;100.00;162994.38;5041621;28;20345;-67
2021/12/10 09:05:39;;;;;;;1999.90;999.90;;;;;;;2.44;100.00;163049.19;5044104;28;20052;-67
2021/12/10 09:08:06;;;;;;;1999.90;999.90;;;;;;;2.40;100.00;163038.22;5034175;28;20060;-67
2021/12/10 09:10:37;;;;;;;1999.90;999.90;;;;;;;2.11;100.00;162961.53;5035437;28;20079;-66
2021/12/10 09:13:10;;;;;;;1999.90;999.90;;;;;;;2.40;100.00;163038.22;5041407;28;20094;-67
2021/12/10 09:15:36;;;;;;;1999.90;999.90;;;;;;;2.29;99.40;163008.06;5047333;28;20061;-67
2021/12/10 09:18:06;;;;;;;1999.90;999.90;;;;;;;2.58;99.23;163084.78;5041094;28;20090;-67
2021/12/10 09:20:38;;;;;;;1999.90;999.90;;;;;;;2.66;99.38;163105.34;5043206;28;20036;-66
2021/12/10 09:23:08;;;;;;;1999.90;999.90;;;;;;;3.08;98.11;163217.66;5041034;28;20327;-66
2021/12/10 09:25:35;;;;;;;1999.90;999.90;;;;;;;3.06;97.58;163212.19;5046870;28;20130;-67
2021/12/10 09:28:02;;;;;;;1999.90;999.90;;;;;;;2.78;99.19;163139.59;5041562;28;20051;-67
2021/12/10 09:30:32;;;;;;;1999.90;999.90;;;;;;;3.07;97.84;163216.28;5048159;28;20095;-66
2021/12/10 09:32:59;;;;;;;1999.90;999.90;;;;;;;3.17;97.90;163242.31;5033032;28;20053;-66
2021/12/10 09:35:29;;;;;;;1999.90;999.90;;;;;;;3.29;97.00;163275.22;5040578;28;20127;-66
2021/12/10 09:37:55;;;;;;;1999.90;999.90;;;;;;;3.14;97.40;163235.50;5032383;28;20077;-66
2021/12/10 09:40:30;;;;;;;1999.90;999.90;;;;;;;3.26;96.51;163265.59;5047833;28;20102;-66
2021/12/10 09:42:57;;;;;;;1999.90;999.90;;;;;;;3.46;95.88;163320.44;5041106;28;20049;-66
2021/12/10 09:45:28;;;;;;;1999.90;999.90;;;;;;;3.07;96.61;163216.28;5042628;28;20111;-66
2021/12/10 09:47:55;;;;;;;1999.90;999.90;;;;;;;3.08;97.16;163217.66;5048469;28;20089;-66
2021/12/10 09:50:26;;;;;;;1999.90;999.90;;;;;;;2.91;97.84;163172.47;5035733;28;20133;-66
2021/12/10 09:52:54;;;;;;;1999.90;999.90;;;;;;;2.94;98.02;163180.66;5038716;28;20053;-66
2021/12/10 09:55:22;;;;;;;1999.90;999.90;;;;;;;3.37;96.50;163294.41;5046424;28;20456;-66
2021/12/10 09:57:52;;;;;;;1999.90;999.90;;;;;;;3.23;96.60;163257.38;5037334;28;20049;-66
2021/12/10 10:00:28;;;;;;;1999.90;999.90;;;;;;;2.77;97.42;163135.44;5041038;28;20041;-66
2021/12/10 10:02:55;;;;;;;1999.90;999.90;;;;;;;2.58;99.24;163084.78;5042269;28;20148;-65
2021/12/10 10:05:27;;;;;;;1999.90;999.90;;;;;;;2.24;100.00;162994.38;5040645;28;20053;-65
2021/12/10 10:07:59;;;;;;;1999.90;999.90;;;;;;;1.87;100.00;162895.81;5039598;28;20054;-66
2021/12/10 10:10:29;;;;;;;1999.90;999.90;;;;;;;1.81;100.00;162879.38;5050976;28;20070;-65
2021/12/10 10:12:57;;;;;;;1999.90;999.90;;;;;;;2.10;100.00;162958.78;5046236;28;20103;-66
2021/12/10 10:15:28;;;;;;;1999.90;999.90;;;;;;;2.10;100.00;162957.44;5044316;28;20095;-66
2021/12/10 10:17:57;;;;;;;1999.90;999.90;;;;;;;2.37;100.00;163028.66;5045097;28;20049;-65
2021/12/10 10:20:27;;;;;;;1999.90;999.90;;;;;;;2.27;100.00;163002.59;5037325;28;20049;-66
2021/12/10 10:22:53;;;;;;;1999.90;999.90;;;;;;;2.47;100.00;163057.38;5041725;28;20084;-66
2021/12/10 10:25:23;;;;;;;1999.90;999.90;;;;;;;2.52;100.00;163069.72;5039758;28;20053;-66
2021/12/10 10:27:50;;;;;;;1999.90;999.90;;;;;;;2.37;100.00;163030.00;5059632;28;20048;-66
2021/12/10 10:30:30;;;;;;;1999.90;999.90;;;;;;;2.69;99.83;163113.53;5038413;28;20158;-65
2021/12/10 10:33:00;;;;;;;1999.90;999.90;;;;;;;2.58;99.57;163086.16;5044241;28;20043;-65
2021/12/10 10:35:35;;;;;;;1999.90;999.90;;;;;;;2.35;100.00;163024.50;5050674;28;20061;-66
2021/12/10 10:38:03;;;;;;;1999.90;999.90;;;;;;;2.26;100.00;163001.25;5047178;28;20250;-66
2021/12/10 10:40:35;;;;;;;1999.90;999.90;;;;;;;2.18;100.00;162977.97;5045682;28;20453;-66
2021/12/10 10:43:03;;;;;;;1999.90;999.90;;;;;;;2.25;100.00;162998.50;5040203;28;20080;-66
2021/12/10 10:45:34;;;;;;;1999.90;999.90;;;;;;;2.13;100.00;162964.25;5036481;28;20323;-67
2021/12/10 10:48:03;;;;;;;1999.90;999.90;;;;;;;2.23;100.00;162993.03;5041205;28;20434;-67
2021/12/10 10:50:39;;;;;;;1999.90;999.90;;;;;;;2.57;100.00;163082.03;5043885;28;20049;-65
2021/12/10 10:53:16;;;;;;;1999.90;999.90;;;;;;;2.45;100.00;163050.53;5038398;28;20437;-65
2021/12/10 10:55:54;;;;;;;1999.90;999.90;;;;;;;2.42;100.00;163042.31;5039133;28;20442;-65
2021/12/10 10:58:25;;;;;;;1999.90;999.90;;;;;;;2.50;100.00;163062.84;5047653;28;20052;-65
2021/12/10 11:01:14;;;;;;;1999.90;999.90;;;;;;;2.61;100.00;163094.34;5045162;28;20499;-65
2021/12/10 11:04:05;;;;;;;1999.90;999.90;;;;;;;2.88;100.00;163165.59;5047067;28;20081;-64
2021/12/10 11:06:47;;;;;;;1999.90;999.90;;;;;;;3.12;98.09;163228.63;5045744;28;20057;-65
2021/12/10 11:09:22;;;;;;;1999.90;999.90;;;;;;;3.51;97.05;163334.16;5047234;28;20115;-65